Time;durP1;ratioP1;P1;durP2;ratioP2;P2;SDS_P1;SDS_P2;PMS_P1;PMS_P2;Temp;Humidity;BMP_temperature;BMP_pressure;BME280_temperature;BME280_humidity;BME280_pressure;Samples;Min_cycle;Max_cycle;Signal;HPM_P1;HPM_P2
2021/01/13 00:00:28;;;;;;;5.63;2.45;;;16.00;62.10;;;;;;4937558;29;20151;-67
2021/01/13 00:02:53;;;;;;;6.63;2.20;;;16.00;62.00;;;;;;4966908;28;20031;-65
2021/01/13 00:05:19;;;;;;;6.53;2.25;;;16.00;62.30;;;;;;4959522;28;20030;-67
2021/01/13 00:07:49;;;;;;;7.65;2.65;;;15.90;61.80;;;;;;4962901;28;20030;-67
2021/01/13 00:10:15;;;;;;;7.10;2.25;;;15.90;61.80;;;;;;4970793;28;20023;-67
2021/01/13 00:12:40;;;;;;;6.63;2.00;;;15.90;61.90;;;;;;4956268;28;20023;-67
2021/01/13 00:15:07;;;;;;;5.90;1.95;;;15.90;62.10;;;;;;4973527;28;20061;-66
2021/01/13 00:17:33;;;;;;;10.07;2.00;;;15.90;61.80;;;;;;4956352;28;20078;-67
2021/01/13 00:19:59;;;;;;;7.28;2.30;;;15.90;61.50;;;;;;4958996;28;20024;-66
2021/01/13 00:22:25;;;;;;;6.57;1.85;;;15.90;61.60;;;;;;4954055;29;20038;-67
2021/01/13 00:24:53;;;;;;;7.72;1.92;;;15.80;61.40;;;;;;4943383;28;20035;-68
2021/01/13 00:27:21;;;;;;;8.50;2.05;;;15.80;61.20;;;;;;4973680;28;20045;-68
2021/01/13 00:29:50;;;;;;;6.38;1.98;;;15.80;61.30;;;;;;4973016;28;20027;-67
2021/01/13 00:32:16;;;;;;;6.68;1.75;;;15.80;61.20;;;;;;4952660;28;20050;-66
2021/01/13 00:34:42;;;;;;;6.78;1.90;;;15.80;61.30;;;;;;4973236;28;20073;-67
2021/01/13 00:37:08;;;;;;;5.45;1.80;;;15.80;61.00;;;;;;4972761;28;20042;-66
2021/01/13 00:39:34;;;;;;;6.90;1.73;;;15.80;60.80;;;;;;4955995;28;20027;-67
2021/01/13 00:42:01;;;;;;;8.75;2.58;;;15.70;60.80;;;;;;4946846;29;20037;-66
2021/01/13 00:44:27;;;;;;;6.53;2.20;;;15.70;61.00;;;;;;4954014;29;20110;-66
2021/01/13 00:46:52;;;;;;;7.40;2.20;;;15.70;60.90;;;;;;4948819;28;20122;-68
2021/01/13 00:49:18;;;;;;;5.38;1.52;;;15.70;60.70;;;;;;4946848;28;20535;-67
2021/01/13 00:51:43;;;;;;;4.97;1.67;;;15.70;60.70;;;;;;4957678;28;20114;-66
2021/01/13 00:54:11;;;;;;;4.80;1.73;;;15.70;60.70;;;;;;4958503;28;20035;-66
2021/01/13 00:56:46;;;;;;;6.45;1.67;;;15.70;60.70;;;;;;4966409;28;20027;-67
2021/01/13 00:59:11;;;;;;;6.57;1.70;;;15.70;60.80;;;;;;4953238;28;20038;-66
2021/01/13 01:01:39;;;;;;;4.65;1.63;;;15.70;60.60;;;;;;4954974;28;20030;-67
2021/01/13 01:04:05;;;;;;;4.47;1.55;;;15.70;60.50;;;;;;4955596;28;20026;-66
2021/01/13 01:06:30;;;;;;;4.97;1.42;;;15.70;60.40;;;;;;4966775;28;20451;-67
2021/01/13 01:08:56;;;;;;;5.28;1.58;;;15.60;60.50;;;;;;4980903;28;20019;-65
2021/01/13 01:11:27;;;;;;;6.65;1.88;;;15.60;60.50;;;;;;4971039;28;20069;-65
2021/01/13 01:13:52;;;;;;;6.97;1.98;;;15.60;60.30;;;;;;4972496;28;20392;-66
2021/01/13 01:16:18;;;;;;;6.10;1.80;;;15.60;60.20;;;;;;4972700;28;20034;-65
2021/01/13 01:18:43;;;;;;;4.13;1.52;;;15.60;60.00;;;;;;4938902;29;20031;-66
2021/01/13 01:21:09;;;;;;;6.60;1.80;;;15.50;59.90;;;;;;4944586;28;20083;-65
2021/01/13 01:23:38;;;;;;;4.93;1.67;;;15.50;59.80;;;;;;4964997;28;20484;-67
2021/01/13 01:26:05;;;;;;;5.85;1.60;;;15.60;59.70;;;;;;4973154;28;20085;-67
2021/01/13 01:28:31;;;;;;;5.72;1.58;;;15.50;59.70;;;;;;4955448;28;20027;-66
2021/01/13 01:30:56;;;;;;;5.38;1.60;;;15.50;59.50;;;;;;4970405;28;20399;-65
2021/01/13 01:33:22;;;;;;;6.70;2.22;;;15.50;59.30;;;;;;4954396;28;20407;-65
2021/01/13 01:35:48;;;;;;;5.28;1.65;;;15.40;59.00;;;;;;4951169;28;20121;-67
2021/01/13 01:38:14;;;;;;;7.85;1.85;;;15.40;58.60;;;;;;4972466;28;20061;-66
2021/01/13 01:40:39;;;;;;;5.45;1.70;;;15.40;58.40;;;;;;4952907;28;20029;-67
2021/01/13 01:43:05;;;;;;;7.85;1.70;;;15.40;58.20;;;;;;4972162;28;20038;-65
2021/01/13 01:45:31;;;;;;;5.88;1.70;;;15.40;58.20;;;;;;4971368;28;20058;-67
2021/01/13 01:48:03;;;;;;;8.07;1.80;;;15.40;58.20;;;;;;4972408;28;20058;-66
2021/01/13 01:50:37;;;;;;;4.90;1.38;;;15.40;58.10;;;;;;4970401;28;20057;-66
2021/01/13 01:53:08;;;;;;;5.72;1.73;;;15.30;58.00;;;;;;4954636;28;20480;-66
2021/01/13 01:55:39;;;;;;;;;;;15.30;58.10;;;;;;4972742;28;20046;-67
2021/01/13 01:58:10;;;;;;;5.25;1.30;;;15.40;58.10;;;;;;4972659;28;20375;-67
2021/01/13 02:00:36;;;;;;;6.55;1.90;;;15.30;58.00;;;;;;4962068;28;20031;-67
2021/01/13 02:03:21;;;;;;;9.15;2.33;;;15.30;58.00;;;;;;4964750;28;20026;-67
2021/01/13 02:05:47;;;;;;;7.50;1.80;;;15.30;58.00;;;;;;4969598;28;20012;-68
2021/01/13 02:08:21;;;;;;;6.38;1.48;;;15.30;58.00;;;;;;4963372;28;20043;-67
2021/01/13 02:10:48;;;;;;;4.90;1.35;;;15.20;57.90;;;;;;4945490;29;20190;-68
2021/01/13 02:13:13;;;;;;;6.50;1.60;;;15.20;57.50;;;;;;4961613;29;20031;-67
2021/01/13 02:15:39;;;;;;;5.88;1.98;;;15.20;57.40;;;;;;4958230;28;20035;-68
2021/01/13 02:18:08;;;;;;;6.63;1.55;;;15.20;57.50;;;;;;4945482;28;20031;-66
2021/01/13 02:20:38;;;;;;;7.43;1.73;;;15.20;57.50;;;;;;4968902;28;20043;-67
2021/01/13 02:23:06;;;;;;;6.90;1.90;;;15.20;57.60;;;;;;4952087;29;20034;-66
2021/01/13 02:25:55;;;;;;;4.45;1.40;;;15.10;57.30;;;;;;4952273;29;20027;-66
2021/01/13 02:28:23;;;;;;;6.90;1.50;;;15.10;57.10;;;;;;4952336;29;20027;-67
2021/01/13 02:31:03;;;;;;;6.25;1.70;;;15.10;56.80;;;;;;4960544;28;20026;-67
2021/01/13 02:33:48;;;;;;;6.47;1.58;;;15.10;56.30;;;;;;4977972;28;20102;-66
2021/01/13 02:36:34;;;;;;;5.82;1.50;;;15.10;56.10;;;;;;4990761;28;20031;-66
2021/01/13 02:39:01;;;;;;;6.45;1.63;;;15.10;56.20;;;;;;4966267;28;20520;-68
2021/01/13 02:41:34;;;;;;;9.25;1.80;;;15.10;56.20;;;;;;4967999;28;20117;-67
2021/01/13 02:44:07;;;;;;;5.88;1.73;;;15.00;56.00;;;;;;4967902;28;20042;-67
2021/01/13 02:47:09;;;;;;;6.22;1.60;;;15.00;55.90;;;;;;4962742;28;20027;-67
2021/01/13 02:49:39;;;;;;;5.35;1.50;;;15.00;56.00;;;;;;4953528;28;20416;-68
2021/01/13 02:52:18;;;;;;;6.18;1.58;;;15.00;55.90;;;;;;4971778;28;20022;-67
2021/01/13 02:54:55;;;;;;;5.97;1.73;;;15.00;55.80;;;;;;4947257;29;20531;-65
2021/01/13 02:57:28;;;;;;;7.32;1.90;;;15.00;55.50;;;;;;4969872;28;20042;-67
2021/01/13 02:59:57;;;;;;;5.80;1.48;;;15.00;55.20;;;;;;4974414;28;20038;-66
2021/01/13 03:02:37;;;;;;;5.47;1.63;;;15.00;55.10;;;;;;4974448;28;20463;-66
2021/01/13 03:05:04;;;;;;;4.93;1.48;;;15.00;55.00;;;;;;4971980;28;20404;-68
2021/01/13 03:07:35;;;;;;;4.90;1.38;;;15.00;55.00;;;;;;4971856;28;20027;-65
2021/01/13 03:10:09;;;;;;;8.77;1.90;;;14.90;55.10;;;;;;4955713;29;20249;-66
2021/01/13 03:12:39;;;;;;;7.05;1.90;;;15.00;54.90;;;;;;4955268;29;20353;-67
2021/01/13 03:15:05;;;;;;;4.85;1.50;;;15.00;54.70;;;;;;4963909;28;20119;-67
2021/01/13 03:17:50;;;;;;;5.10;1.67;;;14.90;54.60;;;;;;4958076;28;20031;-67
2021/01/13 03:20:43;;;;;;;5.35;1.42;;;15.00;54.50;;;;;;4938990;29;20485;-65
2021/01/13 03:23:23;;;;;;;5.85;1.50;;;14.90;54.60;;;;;;4968470;28;20035;-65
2021/01/13 03:26:01;;;;;;;8.02;1.60;;;14.90;54.60;;;;;;4957174;28;20030;-66
2021/01/13 03:28:30;;;;;;;5.50;1.55;;;14.90;55.00;;;;;;4971613;28;20039;-66
2021/01/13 03:30:58;;;;;;;5.35;1.48;;;14.90;54.70;;;;;;4972874;28;20105;-66
2021/01/13 03:33:24;;;;;;;6.32;1.60;;;14.90;54.90;;;;;;4953596;28;20113;-67
2021/01/13 03:36:03;;;;;;;5.03;1.40;;;14.90;54.80;;;;;;4956074;28;20125;-69
2021/01/13 03:38:30;;;;;;;6.35;1.40;;;14.90;54.60;;;;;;4956700;28;20034;-67
2021/01/13 03:41:04;;;;;;;15.73;8.80;;;14.90;54.70;;;;;;4942194;28;20500;-65
2021/01/13 03:43:35;;;;;;;7.65;2.40;;;15.00;54.80;;;;;;4956131;28;20028;-67
2021/01/13 03:46:07;;;;;;;8.23;2.10;;;14.90;54.60;;;;;;4965264;28;20038;-66
2021/01/13 03:48:39;;;;;;;7.75;1.88;;;14.90;54.40;;;;;;4974107;28;20031;-66
2021/01/13 03:51:05;;;;;;;7.00;1.63;;;14.90;54.30;;;;;;4955937;28;20031;-66
2021/01/13 03:53:40;;;;;;;7.10;1.80;;;14.90;54.00;;;;;;4969384;28;20035;-66
2021/01/13 03:56:09;;;;;;;9.02;1.70;;;14.80;54.00;;;;;;4954983;29;20523;-66
2021/01/13 03:58:48;;;;;;;6.90;1.80;;;14.80;54.10;;;;;;4958841;28;20058;-67
2021/01/13 04:01:23;;;;;;;5.22;1.35;;;14.80;53.80;;;;;;4973882;28;20450;-67
2021/01/13 04:04:05;;;;;;;5.47;1.42;;;14.80;54.00;;;;;;4970413;28;20019;-66
2021/01/13 04:06:41;;;;;;;6.63;1.50;;;14.80;54.30;;;;;;4973480;28;20023;-64
2021/01/13 04:09:09;;;;;;;5.32;1.58;;;14.80;54.30;;;;;;4954789;29;20038;-67
2021/01/13 04:11:35;;;;;;;8.02;1.60;;;14.80;54.10;;;;;;4970498;28;20142;-66
2021/01/13 04:14:02;;;;;;;4.45;1.42;;;14.80;54.30;;;;;;4973958;28;20226;-67
2021/01/13 04:16:35;;;;;;;12.48;5.75;;;14.80;53.90;;;;;;4973638;28;20488;-68
2021/01/13 04:19:01;;;;;;;8.50;2.42;;;14.80;53.90;;;;;;4964807;28;20049;-67
2021/01/13 04:21:27;;;;;;;7.35;2.40;;;14.80;54.10;;;;;;4964759;28;20031;-67
2021/01/13 04:23:56;;;;;;;9.23;2.08;;;14.80;53.80;;;;;;4937071;29;20043;-67
2021/01/13 04:26:23;;;;;;;6.95;1.92;;;14.80;54.00;;;;;;4956434;28;20110;-67
2021/01/13 04:28:48;;;;;;;8.85;1.80;;;14.70;53.90;;;;;;4955952;28;20576;-67
2021/01/13 04:31:14;;;;;;;5.93;1.75;;;14.80;53.80;;;;;;4936795;29;20134;-66
2021/01/13 04:33:40;;;;;;;7.22;2.00;;;14.70;54.20;;;;;;4954614;28;20023;-65
2021/01/13 04:36:06;;;;;;;7.00;1.90;;;14.70;54.20;;;;;;4954598;28;20059;-65
2021/01/13 04:38:33;;;;;;;5.40;1.50;;;14.70;54.30;;;;;;4973432;28;20116;-67
2021/01/13 04:41:12;;;;;;;6.47;1.88;;;14.70;54.10;;;;;;4972981;28;20448;-66
2021/01/13 04:44:01;;;;;;;5.15;1.55;;;14.80;54.00;;;;;;4944734;29;20119;-65
2021/01/13 04:46:38;;;;;;;7.72;1.92;;;14.80;54.00;;;;;;4973053;28;20492;-66
2021/01/13 04:49:10;;;;;;;6.35;1.92;;;14.80;54.10;;;;;;4955748;28;20498;-67
2021/01/13 04:51:41;;;;;;;5.68;1.60;;;14.70;53.90;;;;;;4973126;28;20031;-65
2021/01/13 04:54:10;;;;;;;6.70;2.10;;;14.80;53.90;;;;;;4972489;28;20042;-65
2021/01/13 04:57:04;;;;;;;7.18;1.88;;;14.70;53.90;;;;;;4967141;28;20515;-65
2021/01/13 04:59:57;;;;;;;5.57;1.50;;;14.70;53.80;;;;;;4952531;29;20031;-64
2021/01/13 05:03:00;;;;;;;6.00;1.80;;;14.80;53.70;;;;;;4960501;28;20031;-67
2021/01/13 05:05:30;;;;;;;7.57;1.55;;;14.80;54.00;;;;;;4972207;28;20054;-66
2021/01/13 05:08:28;;;;;;;5.05;1.45;;;14.80;53.90;;;;;;4942993;29;20485;-67
2021/01/13 05:11:10;;;;;;;6.32;1.60;;;14.70;54.20;;;;;;4949824;29;20063;-67
2021/01/13 05:13:36;;;;;;;6.80;1.90;;;14.70;54.30;;;;;;4953389;29;20030;-67
2021/01/13 05:16:09;;;;;;;7.07;1.60;;;14.80;54.10;;;;;;4961859;28;20129;-67
2021/01/13 05:18:37;;;;;;;73.50;63.47;;;14.80;54.10;;;;;;4968223;28;20035;-67
2021/01/13 05:21:10;;;;;;;117.10;79.90;;;14.80;54.10;;;;;;4951418;29;20646;-67
2021/01/13 05:23:37;;;;;;;31.52;21.20;;;14.80;54.50;;;;;;4967327;28;20665;-68
2021/01/13 05:26:11;;;;;;;15.23;9.23;;;14.80;54.40;;;;;;4953148;29;20110;-67
2021/01/13 05:29:01;;;;;;;12.18;7.45;;;14.90;54.30;;;;;;4965450;28;20147;-67
2021/01/13 05:31:33;;;;;;;12.25;5.88;;;15.00;54.30;;;;;;4954198;28;20031;-67
2021/01/13 05:34:00;;;;;;;;;;;15.00;54.30;;;;;;4957845;28;20031;-67
2021/01/13 05:36:29;;;;;;;9.95;5.25;;;15.00;54.20;;;;;;4963968;28;19906;-68
2021/01/13 05:39:05;;;;;;;13.75;5.13;;;15.00;54.30;;;;;;4964795;28;20031;-67
2021/01/13 05:41:31;;;;;;;10.73;4.93;;;15.00;54.50;;;;;;4955224;28;20567;-68
2021/01/13 05:43:57;;;;;;;9.85;4.45;;;15.00;54.80;;;;;;4952169;28;20489;-69
2021/01/13 05:46:23;;;;;;;11.52;4.57;;;14.90;54.90;;;;;;4967625;28;20074;-67
2021/01/13 05:48:50;;;;;;;11.35;4.30;;;14.90;54.60;;;;;;4935981;29;20062;-68
2021/01/13 05:51:29;;;;;;;9.52;3.75;;;15.00;54.40;;;;;;4935235;29;20039;-68
2021/01/13 05:53:56;;;;;;;9.77;3.50;;;15.00;54.20;;;;;;4936677;28;20031;-66
2021/01/13 05:56:22;;;;;;;7.88;3.13;;;15.00;53.60;;;;;;4954228;28;20037;-68
2021/01/13 05:59:00;;;;;;;7.28;3.45;;;15.00;53.70;;;;;;4952877;29;20029;-68
2021/01/13 06:01:38;;;;;;;7.30;2.58;;;15.10;53.90;;;;;;4952368;28;20039;-67
2021/01/13 06:04:05;;;;;;;6.28;2.72;;;15.10;53.90;;;;;;4970888;28;20026;-67
2021/01/13 06:06:36;;;;;;;7.35;2.90;;;15.10;53.90;;;;;;4935998;29;20036;-67
2021/01/13 06:09:03;;;;;;;10.48;3.20;;;15.20;53.70;;;;;;4942712;29;20472;-68
2021/01/13 06:11:32;;;;;;;8.07;2.47;;;15.20;54.20;;;;;;4965229;28;20034;-67
2021/01/13 06:14:02;;;;;;;10.38;2.58;;;15.20;54.20;;;;;;4952417;29;20460;-68
2021/01/13 06:16:29;;;;;;;11.60;4.05;;;15.20;54.00;;;;;;4952759;29;20026;-67
2021/01/13 06:18:56;;;;;;;13.02;3.28;;;15.20;54.20;;;;;;4966502;28;20030;-69
2021/01/13 06:21:22;;;;;;;10.18;4.07;;;15.20;54.20;;;;;;4971213;28;20047;-67
2021/01/13 06:23:49;;;;;;;17.15;3.90;;;15.20;54.30;;;;;;4971243;28;20065;-67
2021/01/13 06:26:16;;;;;;;10.45;3.60;;;15.30;54.40;;;;;;4969797;28;20026;-66
2021/01/13 06:29:22;;;;;;;16.30;3.30;;;15.30;54.30;;;;;;4966764;28;20023;-66
2021/01/13 06:31:56;;;;;;;10.38;2.70;;;15.40;54.40;;;;;;4969677;28;20027;-67
2021/01/13 06:34:29;;;;;;;10.82;2.40;;;15.30;54.70;;;;;;4967961;28;20031;-66
2021/01/13 06:37:22;;;;;;;8.25;2.65;;;15.40;54.80;;;;;;4968789;28;20554;-68
2021/01/13 06:39:47;;;;;;;13.48;2.70;;;15.40;54.40;;;;;;4962617;28;20105;-66
2021/01/13 06:42:13;;;;;;;19.92;2.95;;;15.40;54.60;;;;;;4952321;28;20417;-66
2021/01/13 06:44:48;;;;;;;10.55;2.67;;;15.40;54.40;;;;;;4983086;28;20041;-66
2021/01/13 06:47:13;;;;;;;10.85;2.80;;;15.40;54.50;;;;;;4979370;28;20023;-66
2021/01/13 06:49:39;;;;;;;8.93;2.63;;;15.30;54.20;;;;;;4983411;28;20392;-67
2021/01/13 06:52:08;;;;;;;26.17;12.88;;;15.40;53.80;;;;;;4975304;28;20320;-64
2021/01/13 06:54:45;;;;;;;16.00;7.60;;;15.50;53.60;;;;;;4974718;28;20073;-66
2021/01/13 06:57:13;;;;;;;13.38;5.30;;;15.50;54.00;;;;;;4974718;28;20035;-65
2021/01/13 06:59:39;;;;;;;12.25;5.07;;;15.50;53.80;;;;;;4971739;28;20027;-65
2021/01/13 07:02:05;;;;;;;11.95;3.97;;;15.50;53.80;;;;;;4956808;28;20092;-66
2021/01/13 07:04:44;;;;;;;11.57;3.72;;;15.60;54.00;;;;;;4946909;28;20027;-65
2021/01/13 07:07:12;;;;;;;13.32;3.65;;;15.60;54.00;;;;;;4954381;28;20018;-66
2021/01/13 07:09:45;;;;;;;10.02;3.35;;;15.50;54.00;;;;;;4981288;28;20014;-65
2021/01/13 07:12:14;;;;;;;10.68;3.05;;;15.50;54.00;;;;;;4982505;28;20529;-65
2021/01/13 07:14:45;;;;;;;7.18;2.83;;;15.50;53.80;;;;;;4987218;28;20088;-66
2021/01/13 07:17:17;;;;;;;9.02;3.20;;;15.50;53.60;;;;;;4966576;28;20058;-66
2021/01/13 07:19:48;;;;;;;10.35;2.60;;;15.50;53.30;;;;;;4970462;28;20046;-66
2021/01/13 07:22:16;;;;;;;8.07;3.00;;;15.50;53.40;;;;;;4971613;28;20045;-66
2021/01/13 07:24:43;;;;;;;7.32;2.40;;;15.40;53.70;;;;;;4958663;28;20407;-67
2021/01/13 07:27:10;;;;;;;9.00;2.60;;;15.40;53.80;;;;;;4961402;28;20149;-66
2021/01/13 07:29:35;;;;;;;8.82;2.70;;;15.40;53.70;;;;;;4958735;28;20830;-67
2021/01/13 07:32:03;;;;;;;8.00;2.40;;;15.40;54.00;;;;;;4948185;28;20043;-67
2021/01/13 07:34:40;;;;;;;15.35;10.13;;;15.40;53.70;;;;;;4952842;28;20113;-65
2021/01/13 07:37:15;;;;;;;12.48;5.88;;;15.50;53.70;;;;;;4952385;28;20073;-70
2021/01/13 07:40:10;;;;;;;9.13;4.13;;;15.50;53.20;;;;;;4956842;28;20048;-66
2021/01/13 07:42:41;;;;;;;8.88;3.38;;;15.50;53.80;;;;;;4948016;28;20062;-69
2021/01/13 07:45:06;;;;;;;9.13;3.40;;;15.50;53.70;;;;;;4942557;28;20042;-66
2021/01/13 07:47:44;;;;;;;13.38;3.08;;;15.50;53.60;;;;;;4963346;28;20034;-66
2021/01/13 07:50:13;;;;;;;8.07;2.70;;;15.50;53.80;;;;;;4962939;28;20058;-66
2021/01/13 07:52:52;;;;;;;7.78;2.53;;;15.50;53.90;;;;;;4967742;28;20692;-66
2021/01/13 07:55:23;;;;;;;7.63;2.95;;;15.50;53.50;;;;;;4939904;28;20073;-66
2021/01/13 07:57:55;;;;;;;11.35;2.55;;;15.50;53.70;;;;;;4968329;28;20065;-66
2021/01/13 08:00:31;;;;;;;7.00;2.28;;;15.50;53.50;;;;;;4951292;28;20534;-68
2021/01/13 08:03:08;;;;;;;6.63;2.03;;;15.50;53.20;;;;;;4961237;28;20067;-67
2021/01/13 08:06:03;;;;;;;6.55;2.10;;;15.50;53.10;;;;;;4968167;28;20035;-67
2021/01/13 08:09:03;;;;;;;8.15;2.50;;;15.60;54.90;;;;;;4968490;28;20706;-65
2021/01/13 08:12:10;;;;;;;10.05;2.55;;;15.60;54.10;;;;;;4967173;28;20098;-65
2021/01/13 08:15:12;;;;;;;12.30;2.67;;;15.60;54.70;;;;;;4922691;28;20043;-67
2021/01/13 08:18:12;;;;;;;7.63;2.35;;;15.60;55.10;;;;;;4939634;29;20504;-67
2021/01/13 08:24:13;;;;;;;6.40;2.38;;;15.60;55.80;;;;;;4952755;28;20050;-67
2021/01/13 08:26:40;;;;;;;9.75;2.40;;;15.60;56.00;;;;;;4932333;29;20039;-67
2021/01/13 08:29:06;;;;;;;8.73;2.03;;;15.60;56.20;;;;;;4952508;28;20037;-68
2021/01/13 08:31:33;;;;;;;5.70;2.20;;;15.50;56.20;;;;;;4933655;28;20118;-68
2021/01/13 08:34:18;;;;;;;6.70;2.40;;;15.60;56.50;;;;;;4951437;28;20583;-67
2021/01/13 08:36:54;;;;;;;7.43;1.98;;;15.60;56.40;;;;;;4944450;29;20030;-67
2021/01/13 08:39:27;;;;;;;8.05;2.08;;;15.60;56.40;;;;;;4933769;28;20038;-66
2021/01/13 08:41:53;;;;;;;8.30;2.03;;;15.60;56.50;;;;;;4936340;28;20035;-67
2021/01/13 08:44:19;;;;;;;5.68;1.98;;;15.60;56.50;;;;;;4965827;28;20053;-67
2021/01/13 08:46:47;;;;;;;5.10;2.00;;;15.60;56.50;;;;;;4949454;28;20035;-67
2021/01/13 08:49:32;;;;;;;9.68;2.10;;;15.60;56.50;;;;;;4962708;28;20508;-69
2021/01/13 08:52:18;;;;;;;10.57;2.05;;;15.80;56.30;;;;;;4955961;28;20030;-70
2021/01/13 08:54:47;;;;;;;5.95;2.03;;;15.90;57.10;;;;;;4950049;28;20154;-69
2021/01/13 08:57:13;;;;;;;8.00;1.85;;;15.90;56.70;;;;;;4965533;28;20110;-68
2021/01/13 08:59:40;;;;;;;6.88;1.85;;;15.80;57.10;;;;;;4975362;28;20109;-69
2021/01/13 09:02:11;;;;;;;4.90;1.60;;;15.90;57.20;;;;;;4958940;28;20039;-66
2021/01/13 09:04:47;;;;;;;9.50;1.60;;;15.90;56.90;;;;;;4966929;28;20026;-66
2021/01/13 09:07:15;;;;;;;5.38;1.88;;;15.90;56.90;;;;;;4951213;28;20175;-67
2021/01/13 09:10:03;;;;;;;10.95;1.90;;;15.80;56.90;;;;;;4960240;28;20515;-69
2021/01/13 09:12:33;;;;;;;11.15;2.60;;;15.80;57.30;;;;;;4980863;28;20050;-68
2021/01/13 09:15:08;;;;;;;7.95;1.85;;;15.90;57.60;;;;;;4970184;28;20022;-66
2021/01/13 09:17:38;;;;;;;16.58;2.55;;;15.90;57.30;;;;;;4969062;28;20357;-67
2021/01/13 09:20:32;;;;;;;15.45;2.33;;;16.00;57.40;;;;;;4967366;28;20023;-66
2021/01/13 09:23:02;;;;;;;24.10;3.05;;;16.00;57.10;;;;;;4953619;28;20428;-66
2021/01/13 09:25:29;;;;;;;11.20;3.40;;;15.90;57.20;;;;;;4941928;28;20034;-65
2021/01/13 09:28:00;;;;;;;17.98;2.38;;;15.90;57.50;;;;;;4951930;28;20038;-69
2021/01/13 09:30:27;;;;;;;13.18;2.13;;;15.90;57.40;;;;;;4956671;28;20121;-66
2021/01/13 09:32:54;;;;;;;18.08;2.55;;;16.00;57.40;;;;;;4936354;28;20047;-67
2021/01/13 09:35:27;;;;;;;14.80;2.40;;;16.00;57.00;;;;;;4952538;28;20113;-67
2021/01/13 09:37:57;;;;;;;8.10;1.90;;;16.00;57.00;;;;;;4963477;28;20058;-67
2021/01/13 09:40:43;;;;;;;14.02;2.25;;;15.90;57.00;;;;;;4955759;28;20014;-66
2021/01/13 09:43:35;;;;;;;9.05;1.67;;;15.90;57.30;;;;;;4942508;29;20039;-66
2021/01/13 09:46:04;;;;;;;9.00;1.67;;;15.90;57.10;;;;;;4969403;28;20486;-68
2021/01/13 09:48:32;;;;;;;10.82;2.25;;;15.90;57.30;;;;;;4950763;28;20136;-66
2021/01/13 09:51:07;;;;;;;10.38;2.20;;;16.00;57.40;;;;;;4948755;28;20030;-67
2021/01/13 09:53:47;;;;;;;9.07;1.77;;;15.90;57.20;;;;;;4942028;28;20034;-66
2021/01/13 09:56:12;;;;;;;10.60;1.90;;;15.90;57.30;;;;;;4960116;28;20047;-66
2021/01/13 09:58:44;;;;;;;12.10;2.20;;;16.00;56.80;;;;;;4964309;28;20526;-66
2021/01/13 10:01:14;;;;;;;8.10;1.88;;;16.10;57.10;;;;;;4946889;28;20645;-67
2021/01/13 10:03:42;;;;;;;7.75;2.03;;;16.20;57.30;;;;;;4964997;28;20588;-66
2021/01/13 10:06:23;;;;;;;8.18;1.63;;;16.20;56.90;;;;;;4965468;28;20719;-67
2021/01/13 10:08:50;;;;;;;5.63;1.50;;;16.30;56.50;;;;;;4948545;28;20069;-66
2021/01/13 10:11:18;;;;;;;6.80;1.60;;;16.20;56.40;;;;;;4948046;28;20195;-66
2021/01/13 10:13:45;;;;;;;7.82;1.83;;;16.30;56.60;;;;;;4965784;28;20038;-67
2021/01/13 10:16:13;;;;;;;9.35;3.25;;;16.30;56.70;;;;;;4950446;28;20062;-67
2021/01/13 10:18:53;;;;;;;12.93;4.22;;;16.30;56.30;;;;;;4942225;28;20033;-67
2021/01/13 10:21:19;;;;;;;8.32;3.30;;;16.20;56.80;;;;;;4963484;28;20063;-66
2021/01/13 10:23:46;;;;;;;8.05;3.30;;;16.30;57.30;;;;;;4967116;28;20041;-67
2021/01/13 10:26:12;;;;;;;16.00;3.50;;;16.20;57.40;;;;;;4941417;28;20060;-66
2021/01/13 10:28:39;;;;;;;12.10;3.00;;;16.20;57.50;;;;;;4953548;28;20027;-67
2021/01/13 10:31:07;;;;;;;9.43;2.97;;;16.20;57.40;;;;;;4968419;28;20786;-66
2021/01/13 10:33:45;;;;;;;9.93;2.83;;;16.20;57.40;;;;;;4965344;28;20026;-67
2021/01/13 10:36:30;;;;;;;10.85;2.70;;;16.20;57.40;;;;;;4981242;28;20058;-66
2021/01/13 10:38:56;;;;;;;10.32;2.72;;;16.30;57.30;;;;;;4965737;28;20019;-66
2021/01/13 10:41:29;;;;;;;8.80;2.13;;;16.30;57.40;;;;;;4965929;28;20544;-68
2021/01/13 10:44:28;;;;;;;10.23;2.67;;;16.30;57.30;;;;;;4964660;28;20035;-67
2021/01/13 10:47:11;;;;;;;7.30;2.15;;;16.30;57.40;;;;;;4964364;28;20900;-66
2021/01/13 10:49:42;;;;;;;6.93;2.10;;;16.30;57.20;;;;;;4965730;28;20035;-66
2021/01/13 10:52:16;;;;;;;7.45;2.13;;;16.40;57.10;;;;;;4948703;28;20038;-66
2021/01/13 10:54:44;;;;;;;9.05;2.55;;;16.40;57.20;;;;;;4950486;28;20027;-67
2021/01/13 10:57:13;;;;;;;5.90;2.03;;;16.40;56.90;;;;;;4959891;28;20031;-67
2021/01/13 10:59:40;;;;;;;5.22;1.80;;;16.40;56.90;;;;;;4970220;28;20038;-68
2021/01/13 11:02:11;;;;;;;6.63;2.05;;;16.40;56.90;;;;;;4968485;28;20037;-67
2021/01/13 11:04:40;;;;;;;6.07;2.00;;;16.40;56.80;;;;;;4956693;28;20018;-67
2021/01/13 11:07:16;;;;;;;6.18;1.80;;;16.40;56.60;;;;;;4957881;28;20572;-67
2021/01/13 11:09:47;;;;;;;6.68;1.67;;;16.50;56.70;;;;;;4935123;29;20035;-67
2021/01/13 11:12:21;;;;;;;7.22;1.92;;;16.50;56.70;;;;;;4951645;29;20519;-69
2021/01/13 11:14:49;;;;;;;4.93;1.60;;;16.50;56.60;;;;;;4938169;29;20027;-68
2021/01/13 11:17:19;;;;;;;6.13;1.90;;;16.50;56.70;;;;;;4955588;29;20023;-68
2021/01/13 11:19:52;;;;;;;5.55;1.75;;;16.50;57.10;;;;;;4974267;28;20037;-67
2021/01/13 11:22:19;;;;;;;6.78;1.90;;;16.50;57.00;;;;;;4976333;28;20593;-67
2021/01/13 11:24:49;;;;;;;5.80;1.65;;;16.50;57.00;;;;;;4956843;28;20188;-67
2021/01/13 11:27:20;;;;;;;5.20;1.60;;;16.40;57.30;;;;;;4974655;28;20090;-67
2021/01/13 11:29:52;;;;;;;9.02;2.13;;;16.30;57.40;;;;;;4956884;28;20019;-67
2021/01/13 11:32:20;;;;;;;7.75;2.50;;;16.30;57.40;;;;;;4951673;28;20118;-68
2021/01/13 11:34:53;;;;;;;7.68;2.20;;;16.30;57.30;;;;;;4954561;28;20558;-67
2021/01/13 11:37:33;;;;;;;7.90;2.25;;;16.40;56.90;;;;;;4950152;28;20117;-65
2021/01/13 11:40:20;;;;;;;11.98;2.45;;;16.40;56.40;;;;;;4965969;28;20524;-69
2021/01/13 11:43:11;;;;;;;9.20;2.00;;;16.40;56.90;;;;;;4937570;29;20028;-68
2021/01/13 11:46:06;;;;;;;8.50;1.92;;;16.40;56.70;;;;;;4937937;29;20500;-67
2021/01/13 11:48:46;;;;;;;13.15;2.83;;;16.50;56.80;;;;;;4946936;28;20401;-67
2021/01/13 11:51:17;;;;;;;8.55;2.03;;;16.50;56.90;;;;;;4966435;28;20058;-68
2021/01/13 11:53:45;;;;;;;7.50;2.35;;;16.50;57.00;;;;;;4959418;28;20037;-63
2021/01/13 11:56:10;;;;;;;35.70;14.68;;;16.50;56.50;;;;;;4975325;28;20056;-67
2021/01/13 11:58:44;;;;;;;310.70;148.68;;;16.50;56.50;;;;;;4986683;28;20122;-65
2021/01/13 12:01:11;;;;;;;710.28;433.52;;;16.50;56.70;;;;;;4964496;28;20102;-67
2021/01/13 12:03:37;;;;;;;627.92;362.88;;;16.40;56.80;;;;;;4960064;28;20399;-66
2021/01/13 12:06:09;;;;;;;398.42;209.52;;;16.40;56.50;;;;;;4957475;28;20158;-66
2021/01/13 12:08:36;;;;;;;281.80;138.20;;;16.40;56.10;;;;;;4951679;28;20030;-66
2021/01/13 12:11:02;;;;;;;214.18;111.93;;;16.30;55.60;;;;;;4952527;28;20394;-68
2021/01/13 12:13:30;;;;;;;165.45;88.85;;;16.30;55.50;;;;;;4943802;28;20027;-66
2021/01/13 12:15:57;;;;;;;185.88;103.75;;;16.20;55.20;;;;;;4953196;28;20026;-67
2021/01/13 12:18:27;;;;;;;185.60;104.88;;;16.20;54.70;;;;;;4956209;28;20059;-66
2021/01/13 12:20:58;;;;;;;224.63;135.13;;;16.20;55.30;;;;;;4946583;28;20034;-66
2021/01/13 12:23:32;;;;;;;169.57;102.88;;;16.20;55.20;;;;;;4961755;28;20085;-66
2021/01/13 12:26:24;;;;;;;189.00;127.63;;;16.20;54.80;;;;;;4967532;28;20031;-66
2021/01/13 12:28:58;;;;;;;226.02;154.20;;;16.10;54.50;;;;;;4967205;28;20039;-66
2021/01/13 12:31:33;;;;;;;257.02;183.50;;;16.10;54.30;;;;;;4939162;28;20043;-66
2021/01/13 12:33:58;;;;;;;196.65;135.35;;;16.10;54.50;;;;;;4944668;29;20043;-66
2021/01/13 12:36:29;;;;;;;249.65;179.77;;;16.00;54.00;;;;;;4963273;28;20054;-66
2021/01/13 12:38:56;;;;;;;160.48;108.88;;;16.00;53.90;;;;;;4959354;28;20031;-67
2021/01/13 12:41:23;;;;;;;168.30;115.22;;;16.00;53.80;;;;;;4954159;28;20559;-66
2021/01/13 12:43:50;;;;;;;111.63;75.95;;;16.00;53.30;;;;;;4971160;28;20110;-67
2021/01/13 12:46:25;;;;;;;107.18;70.72;;;16.10;53.50;;;;;;4965068;28;20449;-66
2021/01/13 12:48:51;;;;;;;128.88;89.68;;;16.00;53.30;;;;;;4972477;28;20061;-66
2021/01/13 12:51:17;;;;;;;101.68;74.15;;;15.90;53.30;;;;;;4956179;28;20023;-68
2021/01/13 12:53:43;;;;;;;86.55;65.22;;;15.90;53.50;;;;;;4965747;28;20090;-67
2021/01/13 12:56:23;;;;;;;72.80;53.40;;;15.90;53.20;;;;;;4972657;28;20118;-67
2021/01/13 12:58:49;;;;;;;58.38;42.60;;;15.80;53.20;;;;;;4969048;28;20108;-67
2021/01/13 13:01:14;;;;;;;46.30;31.92;;;15.80;53.10;;;;;;4937361;28;20801;-67
2021/01/13 13:03:40;;;;;;;39.78;28.38;;;15.80;53.20;;;;;;4953311;28;20023;-67
2021/01/13 13:06:08;;;;;;;37.10;24.33;;;15.80;52.90;;;;;;4960848;28;20366;-67
2021/01/13 13:08:37;;;;;;;36.63;25.60;;;15.80;52.90;;;;;;4936322;29;20027;-66